Time;durP1;ratioP1;P1;durP2;ratioP2;P2;SDS_P1;SDS_P2;PMS_P1;PMS_P2;Temp;Humidity;BMP_temperature;BMP_pressure;BME280_temperature;BME280_humidity;BME280_pressure;Samples;Min_cycle;Max_cycle;Signal;HPM_P1;HPM_P2
2021/12/18 00:02:27;;;;;;;;;;;;;;;5.34;64.19;100994.88;4993440;28;19981;-86
2021/12/18 00:05:00;;;;;;;;;;;;;;;5.31;64.33;100995.59;4993235;28;19936;-86
2021/12/18 00:07:34;;;;;;;;;;;;;;;5.26;64.23;101001.28;4974951;28;19965;-87
2021/12/18 00:10:05;;;;;;;;;;;;;;;5.22;63.96;100997.78;4949365;28;19926;-87
2021/12/18 00:12:34;;;;;;;;;;;;;;;5.23;64.26;100991.88;5000953;28;19929;-87
2021/12/18 00:15:07;;;;;;;;;;;;;;;5.24;64.37;100993.63;4991915;28;19925;-82
2021/12/18 00:17:37;;;;;;;;;;;;;;;5.24;64.21;100983.50;5001060;28;19932;-88
2021/12/18 00:20:07;;;;;;;;;;;;;;;5.21;64.33;100985.03;4996442;28;20008;-87
2021/12/18 00:22:38;;;;;;;;;;;;;;;5.25;64.27;100977.66;5016082;28;19925;-87
2021/12/18 00:25:11;;;;;;;;;;;;;;;5.21;64.25;100979.97;4983340;28;19934;-88
2021/12/18 00:27:42;;;;;;;;;;;;;;;5.17;64.49;100984.06;4977054;28;19926;-88
2021/12/18 00:30:13;;;;;;;;;;;;;;;5.10;64.14;100981.19;4981517;28;19930;-88
2021/12/18 00:32:43;;;;;;;;;;;;;;;5.09;64.55;100990.44;4986398;28;19930;-87
2021/12/18 00:35:17;;;;;;;;;;;;;;;5.12;64.39;100985.53;4996391;28;19930;-88
2021/12/18 00:37:53;;;;;;;;;;;;;;;5.09;63.90;100979.47;4996247;28;19926;-87
2021/12/18 00:40:30;;;;;;;;;;;;;;;5.04;64.29;100976.75;4964277;28;19972;-87
2021/12/18 00:43:02;;;;;;;;;;;;;;;5.06;64.26;100980.19;4989466;28;19926;-87
2021/12/18 00:45:32;;;;;;;;;;;;;;;5.03;64.49;100979.22;4984084;28;20442;-88
2021/12/18 00:48:01;;;;;;;;;;;;;;;5.00;64.03;100964.78;4996501;28;19933;-88
2021/12/18 00:50:31;;;;;;;;;;;;;;;4.97;64.07;100959.56;4980317;28;19925;-88
2021/12/18 00:53:04;;;;;;;;;;;;;;;4.95;63.89;100953.59;4996846;28;19964;-89
2021/12/18 00:55:37;;;;;;;;;;;;;;;4.95;63.95;100950.19;4988772;28;19926;-88
2021/12/18 00:58:07;;;;;;;;;;;;;;;4.91;63.77;100963.53;4993376;28;19969;-88
2021/12/18 01:00:41;;;;;;;;;;;;;;;4.87;64.10;100952.38;4977648;28;20049;-88
2021/12/18 01:03:16;;;;;;;;;;;;;;;4.84;63.87;100947.22;4978409;28;20368;-88
2021/12/18 01:05:50;;;;;;;;;;;;;;;4.84;63.85;100948.88;4979852;28;19926;-84
2021/12/18 01:08:23;;;;;;;;;;;;;;;4.84;63.61;100962.41;4996118;28;19925;-88
2021/12/18 01:11:12;;;;;;;;;;;;;;;4.80;63.51;100965.56;4996867;28;19980;-88
2021/12/18 01:14:00;;;;;;;;;;;;;;;4.82;63.32;100958.94;4978099;28;19932;-87
2021/12/18 01:16:49;;;;;;;;;;;;;;;4.85;63.19;100969.16;4976288;28;19969;-87
2021/12/18 01:24:50;;;;;;;;;;;;;;;4.74;63.46;100957.75;4982642;28;19930;-88
2021/12/18 01:27:20;;;;;;;;;;;;;;;4.75;63.18;100962.03;4983935;28;19950;-88
2021/12/18 01:29:52;;;;;;;;;;;;;;;4.77;63.23;100965.47;4993153;28;19926;-88
2021/12/18 01:32:22;;;;;;;;;;;;;;;4.83;62.90;100968.25;4996585;28;19926;-88
2021/12/18 01:34:55;;;;;;;;;;;;;;;4.82;62.48;100983.38;4996718;28;20398;-88
2021/12/18 01:37:27;;;;;;;;;;;;;;;4.83;62.59;100980.03;4982521;28;20021;-88
2021/12/18 01:40:01;;;;;;;;;;;;;;;4.83;62.22;101001.13;4970923;28;19965;-88
2021/12/18 01:45:14;;;;;;;;;;;;;;;4.78;62.74;101011.84;4980380;28;19929;-87
2021/12/18 01:53:11;;;;;;;;;;;;;;;4.85;62.66;101009.63;4943840;28;19930;-86
2021/12/18 01:55:48;;;;;;;;;;;;;;;4.77;62.52;101005.94;4945319;28;19930;-88
2021/12/18 01:58:22;;;;;;;;;;;;;;;4.80;62.56;101010.25;4944025;28;20017;-87
2021/12/18 02:01:01;;;;;;;;;;;;;;;4.84;62.71;101013.00;4976325;28;19926;-87
2021/12/18 02:03:36;;;;;;;;;;;;;;;4.84;62.04;101018.03;4978095;28;19930;-87
2021/12/18 02:06:09;;;;;;;;;;;;;;;4.89;62.39;101026.69;4978217;28;19930;-87
2021/12/18 02:08:39;;;;;;;;;;;;;;;4.89;61.70;101036.81;4973853;28;19926;-87
2021/12/18 02:11:26;;;;;;;;;;;;;;;4.96;61.92;101030.34;4975164;28;19927;-86
2021/12/18 02:19:48;;;;;;;;;;;;;;;4.84;61.55;101028.16;4983733;28;19926;-85
2021/12/18 02:22:24;;;;;;;;;;;;;;;4.84;61.45;101034.88;4943860;28;19926;-87
2021/12/18 02:24:53;;;;;;;;;;;;;;;4.82;61.44;101032.28;4959334;28;20398;-85
2021/12/18 02:27:23;;;;;;;;;;;;;;;4.83;61.28;101039.06;4958638;28;19932;-87
2021/12/18 02:29:53;;;;;;;;;;;;;;;4.82;61.48;101037.34;4989889;28;20375;-87
2021/12/18 02:32:23;;;;;;;;;;;;;;;4.85;61.13;101047.56;4995318;28;19953;-87
2021/12/18 02:34:58;;;;;;;;;;;;;;;4.94;60.99;101045.47;4976656;28;19930;-87
2021/12/18 02:37:33;;;;;;;;;;;;;;;4.99;60.52;101046.50;4980207;28;19926;-88
2021/12/18 02:42:44;;;;;;;;;;;;;;;4.82;60.72;101065.19;4975798;28;20008;-87
2021/12/18 02:45:14;;;;;;;;;;;;;;;4.92;60.18;101069.81;5006781;28;19992;-86
2021/12/18 02:47:47;;;;;;;;;;;;;;;4.97;60.18;101070.88;4993536;28;19932;-87
2021/12/18 02:50:17;;;;;;;;;;;;;;;4.92;59.88;101072.34;4993037;28;19926;-87
2021/12/18 02:52:52;;;;;;;;;;;;;;;4.92;59.58;101077.41;4981804;28;19926;-88
2021/12/18 02:55:23;;;;;;;;;;;;;;;4.88;59.84;101087.31;4990686;28;19926;-87
2021/12/18 02:57:53;;;;;;;;;;;;;;;4.88;59.33;101084.78;4973996;28;19926;-86
2021/12/18 03:00:28;;;;;;;;;;;;;;;4.86;59.58;101087.25;4974418;28;20020;-87
2021/12/18 03:03:07;;;;;;;;;;;;;;;4.80;59.58;101097.09;4985626;28;19932;-87
2021/12/18 03:05:45;;;;;;;;;;;;;;;4.84;59.42;101083.81;4976902;28;19930;-88
2021/12/18 03:08:34;;;;;;;;;;;;;;;4.88;59.25;101085.66;4975479;28;19932;-87
2021/12/18 03:20:00;;;;;;;;;;;;;;;4.92;58.51;101085.00;4973490;28;20020;-86
2021/12/18 03:25:00;;;;;;;;;;;;;;;4.91;58.63;101093.41;4952406;28;19933;-87
2021/12/18 03:27:42;;;;;;;;;;;;;;;5.00;58.43;101098.84;4973219;28;20024;-87
2021/12/18 03:30:15;;;;;;;;;;;;;;;4.95;58.57;101087.66;4985507;28;19932;-87
2021/12/18 03:32:49;;;;;;;;;;;;;;;5.01;58.56;101072.78;4995092;28;19933;-87
2021/12/18 03:35:20;;;;;;;;;;;;;;;5.08;58.42;101084.88;4977948;28;19976;-87
2021/12/18 03:37:54;;;;;;;;;;;;;;;4.99;58.61;101079.41;4993398;28;20386;-89
2021/12/18 03:40:29;;;;;;;;;;;;;;;5.05;58.52;101088.94;4991856;28;20008;-92
2021/12/18 03:42:59;;;;;;;;;;;;;;;5.03;58.56;101085.47;4995914;28;20376;-93
2021/12/18 03:45:31;;;;;;;;;;;;;;;5.06;59.00;101091.50;4997584;28;19930;-92
2021/12/18 03:48:02;;;;;;;;;;;;;;;5.11;58.63;101095.13;4998704;28;19961;-91
2021/12/18 03:50:34;;;;;;;;;;;;;;;5.04;58.42;101097.34;4999421;28;19940;-93
2021/12/18 03:53:07;;;;;;;;;;;;;;;5.01;58.89;101093.00;5042906;28;19909;-91
2021/12/18 03:55:38;;;;;;;;;;;;;;;4.94;59.02;101096.06;5031720;28;19910;-92
2021/12/18 03:58:12;;;;;;;;;;;;;;;5.03;59.32;101088.88;4987626;28;19918;-90
2021/12/18 04:00:41;;;;;;;;;;;;;;;5.02;59.12;101089.66;4999243;28;19973;-92
2021/12/18 04:03:11;;;;;;;;;;;;;;;5.06;59.36;101101.63;4982200;28;19933;-89
2021/12/18 04:05:45;;;;;;;;;;;;;;;5.07;59.34;101108.44;4985264;28;20017;-84
2021/12/18 04:08:14;;;;;;;;;;;;;;;5.12;59.01;101111.16;4988673;28;19966;-90
2021/12/18 04:10:46;;;;;;;;;;;;;;;5.15;58.88;101117.25;4979417;28;20347;-93
2021/12/18 04:13:19;;;;;;;;;;;;;;;5.16;58.91;101118.13;4998416;28;20049;-93
2021/12/18 04:15:52;;;;;;;;;;;;;;;5.09;59.07;101122.03;4998270;28;19929;-93
2021/12/18 04:18:21;;;;;;;;;;;;;;;5.09;59.11;101114.44;4976017;28;19926;-93
2021/12/18 04:20:54;;;;;;;;;;;;;;;5.09;58.93;101116.97;4978069;28;19926;-94
2021/12/18 04:23:27;;;;;;;;;;;;;;;5.05;58.82;101124.34;4979424;28;19948;-93
2021/12/18 04:26:01;;;;;;;;;;;;;;;5.10;59.19;101128.84;4997740;28;19930;-93
2021/12/18 04:28:34;;;;;;;;;;;;;;;5.19;58.98;101126.69;4997763;28;19927;-93
2021/12/18 04:31:04;;;;;;;;;;;;;;;5.18;58.98;101126.63;4993095;28;19926;-94
2021/12/18 04:33:37;;;;;;;;;;;;;;;5.24;58.80;101137.88;5007892;28;19926;-93
2021/12/18 04:36:11;;;;;;;;;;;;;;;5.17;58.69;101130.84;4999190;28;19929;-92
2021/12/18 04:38:54;;;;;;;;;;;;;;;5.15;59.00;101119.78;4997989;28;19926;-87
2021/12/18 04:41:38;;;;;;;;;;;;;;;5.17;59.10;101123.25;4997570;28;20265;-87
2021/12/18 04:44:12;;;;;;;;;;;;;;;5.11;59.09;101129.69;4976563;28;19985;-83
2021/12/18 04:46:41;;;;;;;;;;;;;;;4.95;59.60;101133.19;4961909;28;19933;-90
2021/12/18 04:49:14;;;;;;;;;;;;;;;4.97;59.81;101124.00;4979461;28;19927;-89
2021/12/18 04:51:45;;;;;;;;;;;;;;;4.93;59.52;101124.69;4983985;28;20017;-91
2021/12/18 04:54:17;;;;;;;;;;;;;;;4.98;59.66;101120.69;4962407;28;20287;-92
2021/12/18 04:56:52;;;;;;;;;;;;;;;4.92;59.45;101138.09;4989988;28;19927;-92
2021/12/18 04:59:26;;;;;;;;;;;;;;;4.93;59.30;101132.28;4968618;28;19976;-92
2021/12/18 05:01:59;;;;;;;;;;;;;;;5.01;59.33;101146.13;4966816;28;20017;-92
2021/12/18 05:04:31;;;;;;;;;;;;;;;5.02;59.63;101154.56;4978771;28;19926;-92
2021/12/18 05:07:05;;;;;;;;;;;;;;;4.95;59.73;101147.50;4929858;28;19926;-92
2021/12/18 05:09:35;;;;;;;;;;;;;;;4.95;59.89;101155.09;4980002;28;19933;-81
2021/12/18 05:12:13;;;;;;;;;;;;;;;4.92;59.46;101158.34;4977123;28;19933;-83
2021/12/18 05:14:46;;;;;;;;;;;;;;;4.93;59.97;101152.50;4963927;28;19926;-84
2021/12/18 05:17:18;;;;;;;;;;;;;;;4.89;60.00;101149.78;4960341;28;19930;-84
2021/12/18 05:19:48;;;;;;;;;;;;;;;4.81;59.67;101158.66;4979750;28;19981;-84
2021/12/18 05:22:20;;;;;;;;;;;;;;;4.78;59.90;101153.44;4996264;28;20300;-84
2021/12/18 05:24:57;;;;;;;;;;;;;;;4.72;60.10;101156.59;4988420;28;19937;-84
2021/12/18 05:27:31;;;;;;;;;;;;;;;4.72;60.05;101149.00;4959749;28;19927;-84
2021/12/18 05:30:06;;;;;;;;;;;;;;;4.69;59.96;101151.38;4960261;28;20016;-83
2021/12/18 05:32:35;;;;;;;;;;;;;;;4.65;60.41;101159.63;4979082;28;19982;-84
2021/12/18 05:35:05;;;;;;;;;;;;;;;4.61;60.25;101155.22;4996035;28;19980;-82
2021/12/18 05:37:46;;;;;;;;;;;;;;;4.57;60.13;101163.44;4967874;28;19933;-82
2021/12/18 05:40:20;;;;;;;;;;;;;;;4.54;60.45;101158.25;4976686;28;19926;-83
2021/12/18 05:42:52;;;;;;;;;;;;;;;4.49;60.41;101159.69;4959727;28;19926;-84
2021/12/18 05:45:22;;;;;;;;;;;;;;;4.49;60.54;101154.63;4976632;28;19969;-84
2021/12/18 05:47:51;;;;;;;;;;;;;;;4.50;60.63;101156.38;4988554;28;19930;-84
2021/12/18 05:50:27;;;;;;;;;;;;;;;4.45;60.70;101158.69;4994481;28;19929;-84
2021/12/18 05:53:00;;;;;;;;;;;;;;;4.44;60.59;101159.47;4994560;28;19972;-84
2021/12/18 05:55:31;;;;;;;;;;;;;;;4.43;60.97;101161.94;4988728;28;19926;-84
2021/12/18 05:58:03;;;;;;;;;;;;;;;4.49;61.08;101174.84;4975303;28;20393;-83
2021/12/18 06:00:39;;;;;;;;;;;;;;;4.47;61.04;101181.50;4976039;28;19981;-83
2021/12/18 06:03:12;;;;;;;;;;;;;;;4.52;60.96;101185.13;4959697;28;20017;-83
2021/12/18 06:05:44;;;;;;;;;;;;;;;4.55;61.40;101185.28;4977234;28;20388;-84
2021/12/18 06:08:17;;;;;;;;;;;;;;;4.54;60.76;101191.97;4958969;28;19926;-83
2021/12/18 06:10:49;;;;;;;;;;;;;;;4.56;61.11;101204.69;4974722;28;20017;-83
2021/12/18 06:13:25;;;;;;;;;;;;;;;4.59;60.91;101202.31;4974531;28;19957;-83
2021/12/18 06:15:57;;;;;;;;;;;;;;;4.58;61.07;101205.66;4978736;28;20032;-83
2021/12/18 06:18:27;;;;;;;;;;;;;;;4.52;61.49;101200.28;4975136;28;19933;-83
2021/12/18 06:20:59;;;;;;;;;;;;;;;4.44;61.08;101201.59;4974634;28;19926;-84
2021/12/18 06:23:33;;;;;;;;;;;;;;;4.36;61.47;101197.81;4958731;28;19926;-84
2021/12/18 06:26:03;;;;;;;;;;;;;;;4.34;62.72;101204.47;4958429;28;20410;-84
2021/12/18 06:28:34;;;;;;;;;;;;;;;4.43;62.33;101209.97;4975281;28;19933;-86
2021/12/18 06:31:27;;;;;;;;;;;;;;;4.38;62.72;101211.41;4991148;28;19926;-84
2021/12/18 06:34:02;;;;;;;;;;;;;;;4.46;63.21;101207.59;4959425;28;20269;-84
2021/12/18 06:36:34;;;;;;;;;;;;;;;4.42;63.00;101204.03;4990421;28;19965;-85
2021/12/18 06:39:07;;;;;;;;;;;;;;;4.42;63.36;101203.16;4980659;28;19926;-78
2021/12/18 06:41:41;;;;;;;;;;;;;;;4.42;62.90;101203.16;4993773;28;19926;-82
2021/12/18 06:44:17;;;;;;;;;;;;;;;4.38;63.50;101212.28;4994772;28;19968;-81
2021/12/18 06:46:49;;;;;;;;;;;;;;;4.42;63.47;101210.75;4985687;28;20025;-82
2021/12/18 06:49:22;;;;;;;;;;;;;;;4.44;63.66;101212.56;4974120;28;19926;-81
2021/12/18 06:51:54;;;;;;;;;;;;;;;4.43;63.28;101215.03;4975692;28;20346;-83
2021/12/18 06:54:27;;;;;;;;;;;;;;;4.38;63.19;101226.56;4958219;28;19926;-81
2021/12/18 06:57:01;;;;;;;;;;;;;;;4.36;63.57;101228.16;4983982;28;19941;-77
2021/12/18 06:59:35;;;;;;;;;;;;;;;4.35;63.60;101226.41;4975314;28;19980;-84
2021/12/18 07:02:09;;;;;;;;;;;;;;;4.35;63.12;101234.00;4979497;28;19958;-84
2021/12/18 07:04:42;;;;;;;;;;;;;;;4.43;63.51;101246.22;4986484;28;19929;-84
2021/12/18 07:07:15;;;;;;;;;;;;;;;4.59;63.35;101245.28;4994007;28;20379;-83
2021/12/18 07:09:45;;;;;;;;;;;;;;;4.80;63.17;101238.72;4993281;28;19925;-83
2021/12/18 07:12:17;;;;;;;;;;;;;;;5.08;62.83;101238.38;5001945;28;19926;-83
2021/12/18 07:14:48;;;;;;;;;;;;;;;5.37;62.08;101230.44;5013222;28;20398;-83
2021/12/18 07:17:20;;;;;;;;;;;;;;;5.56;61.78;101232.09;4982021;28;19926;-83
2021/12/18 07:19:50;;;;;;;;;;;;;;;5.67;61.03;101235.97;4977919;28;19926;-83
2021/12/18 07:22:23;;;;;;;;;;;;;;;5.74;60.89;101237.97;4995473;28;19926;-83
2021/12/18 07:24:56;;;;;;;;;;;;;;;5.83;60.57;101249.38;4995350;28;19929;-82
2021/12/18 07:27:25;;;;;;;;;;;;;;;5.74;60.49;101246.44;5000770;28;19926;-83
2021/12/18 07:29:57;;;;;;;;;;;;;;;5.63;60.33;101244.25;4992343;28;19938;-81
2021/12/18 07:32:27;;;;;;;;;;;;;;;5.45;60.25;101253.56;5012309;28;19952;-82
2021/12/18 07:34:56;;;;;;;;;;;;;;;5.30;60.49;101259.63;4988560;28;20012;-80
2021/12/18 07:37:25;;;;;;;;;;;;;;;5.23;60.43;101266.91;4999111;28;19972;-79
2021/12/18 07:39:54;;;;;;;;;;;;;;;5.20;60.44;101262.56;4982128;28;19926;-77
2021/12/18 07:42:24;;;;;;;;;;;;;;;5.16;61.11;101254.78;4981094;28;19961;-78
2021/12/18 07:44:54;;;;;;;;;;;;;;;5.17;61.01;101261.56;4995708;28;20291;-78
2021/12/18 07:47:24;;;;;;;;;;;;;;;5.10;60.75;101265.47;4973027;28;19930;-77
2021/12/18 07:49:53;;;;;;;;;;;;;;;5.02;60.94;101260.84;4992423;28;19926;-78
2021/12/18 07:52:24;;;;;;;;;;;;;;;4.94;61.36;101259.63;5002670;28;19930;-78
2021/12/18 07:54:53;;;;;;;;;;;;;;;4.98;60.99;101264.91;4993877;28;20387;-77
2021/12/18 07:57:22;;;;;;;;;;;;;;;4.97;61.10;101263.16;4974978;28;19969;-79
2021/12/18 07:59:52;;;;;;;;;;;;;;;4.94;60.88;101275.69;4994479;28;20375;-78
2021/12/18 08:02:21;;;;;;;;;;;;;;;4.87;61.18;101281.22;4998131;28;19925;-78
2021/12/18 08:04:51;;;;;;;;;;;;;;;4.89;61.23;101287.25;4983449;28;20421;-78
2021/12/18 08:07:20;;;;;;;;;;;;;;;4.93;61.55;101291.66;4999664;28;19968;-78
2021/12/18 08:09:49;;;;;;;;;;;;;;;4.89;61.49;101287.25;4996783;28;19926;-77
2021/12/18 08:12:23;;;;;;;;;;;;;;;4.90;61.43;101288.97;4991514;28;20341;-78
2021/12/18 08:14:52;;;;;;;;;;;;;;;4.98;61.26;101295.25;4978549;28;19930;-78
2021/12/18 08:17:21;;;;;;;;;;;;;;;4.95;61.28;101290.03;4990233;28;20350;-79
2021/12/18 08:19:52;;;;;;;;;;;;;;;4.93;61.44;101295.81;4978047;28;20296;-78
2021/12/18 08:22:23;;;;;;;;;;;;;;;4.96;61.53;101295.97;5000586;28;19929;-80
2021/12/18 08:24:52;;;;;;;;;;;;;;;5.06;61.21;101301.53;4998074;28;19925;-80
2021/12/18 08:27:21;;;;;;;;;;;;;;;5.12;61.44;101294.25;5001160;28;19925;-79
2021/12/18 08:29:51;;;;;;;;;;;;;;;5.26;60.92;101299.94;4990329;28;20455;-80
2021/12/18 08:32:20;;;;;;;;;;;;;;;5.40;60.83;101292.19;4986561;28;19926;-79
2021/12/18 08:34:52;;;;;;;;;;;;;;;5.49;60.59;101295.94;4995541;28;19926;-79
2021/12/18 08:37:22;;;;;;;;;;;;;;;5.55;60.98;101296.19;4988694;28;20251;-80
2021/12/18 08:39:53;;;;;;;;;;;;;;;5.48;60.49;101299.25;4977954;28;19927;-80
2021/12/18 08:42:22;;;;;;;;;;;;;;;5.38;60.68;101297.97;4977193;28;19926;-80
2021/12/18 08:44:51;;;;;;;;;;;;;;;5.33;60.49;101292.69;4975672;28;20511;-81
2021/12/18 08:47:22;;;;;;;;;;;;;;;5.32;60.63;101298.56;4976207;28;19962;-82
2021/12/18 08:49:54;;;;;;;;;;;;;;;5.26;60.44;101293.22;4976046;28;20299;-81
2021/12/18 08:52:23;;;;;;;;;;;;;;;5.25;60.64;101296.56;4991472;28;20021;-81
2021/12/18 08:54:53;;;;;;;;;;;;;;;5.34;60.79;101301.16;4976621;28;19976;-82
2021/12/18 08:57:22;;;;;;;;;;;;;;;5.40;60.30;101302.31;4959841;28;20343;-81
2021/12/18 08:59:52;;;;;;;;;;;;;;;5.46;60.18;101301.72;4976514;28;19933;-81
2021/12/18 09:02:21;;;;;;;;;;;;;;;5.46;60.33;101300.84;4975587;28;20391;-81
2021/12/18 09:04:50;;;;;;;;;;;;;;;5.50;59.97;101302.72;4976511;28;19932;-82
2021/12/18 09:07:25;;;;;;;;;;;;;;;5.56;60.13;101313.16;4976662;28;19962;-81
2021/12/18 09:09:55;;;;;;;;;;;;;;;5.60;59.94;101315.00;4976252;28;19953;-81
2021/12/18 09:12:25;;;;;;;;;;;;;;;5.60;59.66;101320.94;4976525;28;19927;-81
2021/12/18 09:14:54;;;;;;;;;;;;;;;5.59;59.11;101325.94;4943356;28;19980;-81
2021/12/18 09:17:26;;;;;;;;;;;;;;;5.63;59.70;101327.81;4975742;28;20376;-81
2021/12/18 09:19:56;;;;;;;;;;;;;;;5.67;59.70;101332.22;4975078;28;19930;-81
2021/12/18 09:22:28;;;;;;;;;;;;;;;5.67;59.42;101337.28;4976972;28;20392;-81
2021/12/18 09:24:57;;;;;;;;;;;;;;;5.65;59.08;101334.69;4975077;28;19925;-81
2021/12/18 09:27:26;;;;;;;;;;;;;;;5.62;58.89;101334.53;4975050;28;20479;-81
2021/12/18 09:29:58;;;;;;;;;;;;;;;5.70;59.09;101337.41;4974895;28;19934;-80
2021/12/18 09:32:28;;;;;;;;;;;;;;;5.76;58.55;101327.59;4974486;28;19948;-82
2021/12/18 09:34:58;;;;;;;;;;;;;;;5.89;58.07;101329.88;4976073;28;19926;-83
2021/12/18 09:37:30;;;;;;;;;;;;;;;5.96;58.05;101319.22;4974080;28;19926;-83
2021/12/18 09:39:59;;;;;;;;;;;;;;;6.00;58.17;101319.41;4958042;28;19926;-80
2021/12/18 09:42:28;;;;;;;;;;;;;;;5.97;57.83;101315.91;4976192;28;19926;-82
2021/12/18 09:45:00;;;;;;;;;;;;;;;5.87;57.95;101326.41;4975841;28;19966;-82
2021/12/18 09:47:29;;;;;;;;;;;;;;;5.75;57.74;101320.78;4976038;28;19926;-82
2021/12/18 09:49:59;;;;;;;;;;;;;;;5.66;57.67;101321.25;4975475;28;19932;-84
2021/12/18 09:52:30;;;;;;;;;;;;;;;5.71;57.75;101321.44;4976003;28;20010;-83
2021/12/18 09:55:00;;;;;;;;;;;;;;;5.63;57.56;101287.28;4958486;28;19926;-83
2021/12/18 09:57:30;;;;;;;;;;;;;;;5.85;57.66;101317.88;4958008;28;19933;-81
2021/12/18 10:00:00;;;;;;;;;;;;;;;5.77;57.18;101320.03;4974364;28;19926;-80
2021/12/18 10:02:39;;;;;;;;;;;;;;;5.83;57.57;101320.28;4974970;28;19929;-82
2021/12/18 10:05:20;;;;;;;;;;;;;;;6.00;58.04;101316.88;4974446;28;19926;-82
2021/12/18 10:08:04;;;;;;;;;;;;;;;6.08;57.19;101322.28;4974837;28;19930;-83
2021/12/18 10:10:36;;;;;;;;;;;;;;;6.10;56.92;101315.59;4975057;28;19926;-82
2021/12/18 10:13:06;;;;;;;;;;;;;;;6.07;56.92;101316.34;4974755;28;19933;-82
2021/12/18 10:15:37;;;;;;;;;;;;;;;6.13;56.85;101315.75;4973126;28;19930;-82
2021/12/18 10:18:08;;;;;;;;;;;;;;;6.17;56.70;101307.47;4974539;28;19930;-82
2021/12/18 10:20:38;;;;;;;;;;;;;;;6.08;56.11;101302.00;4973521;28;20017;-83
2021/12/18 10:23:10;;;;;;;;;;;;;;;6.10;56.29;101305.47;4974649;28;19926;-82
2021/12/18 10:25:43;;;;;;;;;;;;;;;6.07;56.04;101306.19;4975078;28;20299;-83
2021/12/18 10:28:16;;;;;;;;;;;;;;;6.18;56.25;101286.41;4975504;28;19926;-83
2021/12/18 10:30:46;;;;;;;;;;;;;;;6.19;55.63;101283.03;4974521;28;19927;-83
2021/12/18 10:33:15;;;;;;;;;;;;;;;6.05;56.19;101276.53;4975295;28;19926;-81
2021/12/18 10:35:46;;;;;;;;;;;;;;;6.10;55.94;101275.06;4973654;28;20016;-80
2021/12/18 10:38:27;;;;;;;;;;;;;;;6.14;56.14;101269.34;4957957;28;20277;-82
2021/12/18 10:40:58;;;;;;;;;;;;;;;6.19;56.50;101267.84;4981228;28;19953;-83
2021/12/18 10:43:49;;;;;;;;;;;;;;;6.26;56.36;101277.47;4991706;28;19926;-82
2021/12/18 10:46:19;;;;;;;;;;;;;;;6.53;56.04;101277.72;4979625;28;19930;-82
2021/12/18 10:48:55;;;;;;;;;;;;;;;6.68;56.06;101269.06;4977251;28;19927;-82
2021/12/18 10:51:24;;;;;;;;;;;;;;;6.90;54.97;101269.91;4972779;28;19973;-82
2021/12/18 10:53:59;;;;;;;;;;;;;;;7.12;55.41;101263.22;4957376;28;20428;-81
2021/12/18 10:56:34;;;;;;;;;;;;;;;7.10;54.87;101263.97;4974464;28;19997;-82
2021/12/18 10:59:06;;;;;;;;;;;;;;;7.28;54.92;101251.94;4975057;28;20300;-81
2021/12/18 11:01:38;;;;;;;;;;;;;;;7.37;55.93;101249.75;4974275;28;19953;-82
2021/12/18 11:04:11;;;;;;;;;;;;;;;7.44;54.92;101246.63;4974512;28;20498;-81
2021/12/18 11:06:41;;;;;;;;;;;;;;;7.52;55.01;101247.78;4973280;28;19926;-82
2021/12/18 11:09:12;;;;;;;;;;;;;;;7.56;55.70;101241.97;4974874;28;19997;-81
2021/12/18 11:14:27;;;;;;;;;;;;;;;7.41;56.01;101241.44;4958116;28;19973;-82
2021/12/18 11:17:03;;;;;;;;;;;;;;;7.20;54.75;101225.38;4972966;28;19930;-82
2021/12/18 11:19:33;;;;;;;;;;;;;;;7.08;55.03;101227.50;4974295;28;19964;-82
2021/12/18 11:22:04;;;;;;;;;;;;;;;7.05;54.81;101240.94;4973227;28;19926;-82
2021/12/18 11:24:35;;;;;;;;;;;;;;;7.06;54.83;101237.56;4973578;28;19976;-82
2021/12/18 11:27:08;;;;;;;;;;;;;;;7.02;54.48;101230.66;4972814;28;19949;-82
2021/12/18 11:29:44;;;;;;;;;;;;;;;7.12;54.71;101216.63;4974740;28;20017;-82
2021/12/18 11:32:15;;;;;;;;;;;;;;;7.31;54.63;101208.91;4974345;28;19926;-82
2021/12/18 11:34:47;;;;;;;;;;;;;;;7.42;54.14;101202.50;4973713;28;19926;-81
2021/12/18 11:37:17;;;;;;;;;;;;;;;7.56;54.43;101206.41;4972490;28;19968;-82
2021/12/18 11:39:51;;;;;;;;;;;;;;;7.67;54.33;101197.53;4957911;28;19970;-82
2021/12/18 11:42:28;;;;;;;;;;;;;;;7.69;54.00;101203.50;4973245;28;19969;-82
2021/12/18 11:44:58;;;;;;;;;;;;;;;7.53;53.56;101206.34;4974374;28;19930;-81
2021/12/18 11:47:33;;;;;;;;;;;;;;;7.32;54.82;101210.59;4957361;28;19933;-81
2021/12/18 11:50:04;;;;;;;;;;;;;;;7.26;54.33;101200.25;4973270;28;19933;-82
2021/12/18 11:52:48;;;;;;;;;;;;;;;7.15;54.63;101206.59;4972997;28;20303;-81
2021/12/18 11:55:20;;;;;;;;;;;;;;;7.03;55.69;101206.97;4956967;28;19972;-83
2021/12/18 11:57:52;;;;;;;;;;;;;;;7.00;55.68;101206.88;4955926;28;19973;-80
2021/12/18 12:00:33;;;;;;;;;;;;;;;6.94;55.70;101205.75;4974251;28;20390;-82
2021/12/18 12:03:04;;;;;;;;;;;;;;;6.85;55.53;101205.41;4973552;28;19933;-82
2021/12/18 12:05:43;;;;;;;;;;;;;;;6.70;55.93;101196.41;4977462;28;19930;-82
2021/12/18 12:08:22;;;;;;;;;;;;;;;6.78;56.44;101188.22;4975031;28;19930;-82
2021/12/18 12:11:15;;;;;;;;;;;;;;;6.82;56.13;101193.47;4975816;28;19934;-82
2021/12/18 12:13:55;;;;;;;;;;;;;;;6.73;55.93;101188.06;4977767;28;19927;-82
2021/12/18 12:16:36;;;;;;;;;;;;;;;6.86;56.13;101191.94;4976224;28;19934;-82
2021/12/18 12:19:07;;;;;;;;;;;;;;;6.84;56.05;101178.34;4977066;28;20021;-82
2021/12/18 12:21:40;;;;;;;;;;;;;;;6.88;55.59;101170.03;4977070;28;19990;-82
2021/12/18 12:24:10;;;;;;;;;;;;;;;7.00;55.96;101160.31;4977745;28;19969;-81
2021/12/18 12:26:39;;;;;;;;;;;;;;;6.87;55.45;101160.66;4975908;28;20356;-83
2021/12/18 12:29:10;;;;;;;;;;;;;;;6.74;55.75;101160.19;4943863;28;19937;-82
2021/12/18 12:31:54;;;;;;;;;;;;;;;6.75;56.24;101159.41;4959745;28;20383;-82
2021/12/18 12:34:33;;;;;;;;;;;;;;;6.75;55.68;101159.41;4976657;28;20085;-82
2021/12/18 12:37:20;;;;;;;;;;;;;;;6.73;56.13;101158.47;4976678;28;19926;-83
2021/12/18 12:39:52;;;;;;;;;;;;;;;6.57;56.79;101151.09;4960133;28;19930;-82
2021/12/18 12:42:22;;;;;;;;;;;;;;;6.48;56.74;101157.44;4959592;28;19980;-82
2021/12/18 12:44:59;;;;;;;;;;;;;;;6.48;57.14;101154.91;4960236;28;19926;-82
2021/12/18 12:47:29;;;;;;;;;;;;;;;6.42;57.29;101155.56;4976815;28;20008;-82
2021/12/18 12:50:25;;;;;;;;;;;;;;;6.25;57.45;101154.03;4977247;28;19930;-83
2021/12/18 12:52:55;;;;;;;;;;;;;;;6.14;57.84;101156.94;4927758;28;19981;-82
2021/12/18 12:55:25;;;;;;;;;;;;;;;6.08;57.76;101149.94;4959754;28;20021;-83
2021/12/18 12:57:56;;;;;;;;;;;;;;;6.08;58.07;101149.94;4976793;28;19926;-80
2021/12/18 13:00:37;;;;;;;;;;;;;;;6.15;58.25;101144.31;4977210;28;19933;-82
2021/12/18 13:03:15;;;;;;;;;;;;;;;6.02;58.15;101150.53;4944174;28;20064;-83
2021/12/18 13:05:50;;;;;;;;;;;;;;;6.04;58.65;101148.97;4913076;28;19926;-83
2021/12/18 13:08:20;;;;;;;;;;;;;;;5.93;58.56;101144.22;4956250;28;19977;-82
2021/12/18 13:10:53;;;;;;;;;;;;;;;5.80;58.89;101147.03;4955745;29;19981;-83
2021/12/18 13:13:24;;;;;;;;;;;;;;;5.73;59.01;101134.94;4924690;29;20389;-83
2021/12/18 13:15:55;;;;;;;;;;;;;;;5.77;59.18;101134.25;4956566;28;19927;-83
2021/12/18 13:18:26;;;;;;;;;;;;;;;5.77;58.91;101131.72;4956342;29;19927;-83
2021/12/18 13:20:59;;;;;;;;;;;;;;;5.87;59.20;101121.19;4955486;29;19926;-83
2021/12/18 13:23:40;;;;;;;;;;;;;;;5.88;59.14;101121.25;4957549;28;19930;-83
2021/12/18 13:26:10;;;;;;;;;;;;;;;5.93;59.73;101113.81;4956400;28;19930;-80
2021/12/18 13:28:47;;;;;;;;;;;;;;;5.98;59.43;101112.34;4953009;29;20033;-83
2021/12/18 13:31:17;;;;;;;;;;;;;;;5.87;59.09;101108.53;4937189;29;20018;-80
2021/12/18 13:33:46;;;;;;;;;;;;;;;5.78;59.32;101113.19;4937951;29;19927;-82
2021/12/18 13:36:18;;;;;;;;;;;;;;;5.85;59.63;101105.06;4937125;29;19931;-82
2021/12/18 13:38:47;;;;;;;;;;;;;;;5.81;60.09;101108.22;4952593;28;19934;-83
2021/12/18 13:41:20;;;;;;;;;;;;;;;5.22;59.81;101028.13;4936845;29;19930;-82
2021/12/18 13:43:55;;;;;;;;;;;;;;;5.68;59.96;101106.00;4952649;29;19990;-82
2021/12/18 13:46:29;;;;;;;;;;;;;;;5.72;60.13;101105.31;4920361;29;19926;-83
2021/12/18 13:49:16;;;;;;;;;;;;;;;5.83;60.18;101097.34;4937769;29;19926;-82
2021/12/18 13:51:47;;;;;;;;;;;;;;;5.93;60.17;101094.44;4937239;29;20349;-82
2021/12/18 13:54:17;;;;;;;;;;;;;;;5.90;60.33;101099.38;4937621;29;19937;-82